sensor_id;sensor_type;location;lat;lon;timestamp;temperature;humidity
74368;DHT22;64991;41.090;-8.118;2024-02-14T00:02:49;16.20;88.00
74368;DHT22;64991;41.090;-8.118;2024-02-14T00:07:53;16.20;88.30
74368;DHT22;64991;41.090;-8.118;2024-02-14T00:12:57;16.20;88.30
74368;DHT22;64991;41.090;-8.118;2024-02-14T00:18:02;16.20;88.20
74368;DHT22;64991;41.090;-8.118;2024-02-14T00:23:06;16.20;88.20
74368;DHT22;64991;41.090;-8.118;2024-02-14T00:28:10;16.10;88.20
74368;DHT22;64991;41.090;-8.118;2024-02-14T00:33:15;16.20;88.30
74368;DHT22;64991;41.090;-8.118;2024-02-14T00:38:21;16.20;88.10
74368;DHT22;64991;41.090;-8.118;2024-02-14T00:43:24;16.20;88.10
74368;DHT22;64991;41.090;-8.118;2024-02-14T00:48:29;16.20;88.10
74368;DHT22;64991;41.090;-8.118;2024-02-14T00:53:34;16.20;88.40
74368;DHT22;64991;41.090;-8.118;2024-02-14T00:58:38;16.30;88.30
74368;DHT22;64991;41.090;-8.118;2024-02-14T01:03:43;16.30;88.00
74368;DHT22;64991;41.090;-8.118;2024-02-14T01:08:47;16.20;88.10
74368;DHT22;64991;41.090;-8.118;2024-02-14T01:13:51;16.20;88.20
74368;DHT22;64991;41.090;-8.118;2024-02-14T01:18:56;16.30;88.30
74368;DHT22;64991;41.090;-8.118;2024-02-14T01:24:00;16.20;88.00
74368;DHT22;64991;41.090;-8.118;2024-02-14T01:29:03;16.20;88.20
74368;DHT22;64991;41.090;-8.118;2024-02-14T01:34:09;16.20;88.30
74368;DHT22;64991;41.090;-8.118;2024-02-14T01:39:13;16.30;88.20
74368;DHT22;64991;41.090;-8.118;2024-02-14T01:44:16;16.30;88.20
74368;DHT22;64991;41.090;-8.118;2024-02-14T01:49:22;16.20;88.10
74368;DHT22;64991;41.090;-8.118;2024-02-14T01:54:25;16.30;88.10
74368;DHT22;64991;41.090;-8.118;2024-02-14T01:59:30;16.20;88.20
74368;DHT22;64991;41.090;-8.118;2024-02-14T02:04:35;16.20;88.40
74368;DHT22;64991;41.090;-8.118;2024-02-14T02:09:39;16.30;88.40
74368;DHT22;64991;41.090;-8.118;2024-02-14T02:14:43;16.20;88.60
74368;DHT22;64991;41.090;-8.118;2024-02-14T02:19:48;16.20;88.50
74368;DHT22;64991;41.090;-8.118;2024-02-14T02:24:53;16.30;88.50
74368;DHT22;64991;41.090;-8.118;2024-02-14T02:29:56;16.30;88.80
74368;DHT22;64991;41.090;-8.118;2024-02-14T02:35:02;16.30;88.70
74368;DHT22;64991;41.090;-8.118;2024-02-14T02:40:08;16.30;88.10
74368;DHT22;64991;41.090;-8.118;2024-02-14T02:45:14;16.30;88.20
74368;DHT22;64991;41.090;-8.118;2024-02-14T02:50:18;16.20;88.50
74368;DHT22;64991;41.090;-8.118;2024-02-14T02:55:25;16.20;88.30
74368;DHT22;64991;41.090;-8.118;2024-02-14T03:00:28;16.30;88.60
74368;DHT22;64991;41.090;-8.118;2024-02-14T03:05:32;16.20;88.70
74368;DHT22;64991;41.090;-8.118;2024-02-14T03:10:37;16.20;88.40
74368;DHT22;64991;41.090;-8.118;2024-02-14T03:15:42;16.30;88.60
74368;DHT22;64991;41.090;-8.118;2024-02-14T03:20:48;16.20;88.40
74368;DHT22;64991;41.090;-8.118;2024-02-14T03:25:54;16.30;88.50
74368;DHT22;64991;41.090;-8.118;2024-02-14T03:30:57;16.20;88.60
74368;DHT22;64991;41.090;-8.118;2024-02-14T03:36:01;16.30;88.50
74368;DHT22;64991;41.090;-8.118;2024-02-14T03:41:06;16.30;88.50
74368;DHT22;64991;41.090;-8.118;2024-02-14T03:46:10;16.30;88.60
74368;DHT22;64991;41.090;-8.118;2024-02-14T03:51:15;16.30;88.60
74368;DHT22;64991;41.090;-8.118;2024-02-14T03:56:20;16.30;88.40
74368;DHT22;64991;41.090;-8.118;2024-02-14T04:01:24;16.30;88.60
74368;DHT22;64991;41.090;-8.118;2024-02-14T04:06:28;16.30;88.70
74368;DHT22;64991;41.090;-8.118;2024-02-14T04:11:35;16.30;88.20
74368;DHT22;64991;41.090;-8.118;2024-02-14T04:16:39;16.30;88.70
74368;DHT22;64991;41.090;-8.118;2024-02-14T04:21:43;16.30;88.60
74368;DHT22;64991;41.090;-8.118;2024-02-14T04:26:48;16.40;88.50
74368;DHT22;64991;41.090;-8.118;2024-02-14T04:31:52;16.30;88.60
74368;DHT22;64991;41.090;-8.118;2024-02-14T04:36:56;16.30;88.50
74368;DHT22;64991;41.090;-8.118;2024-02-14T04:42:01;16.30;88.40
74368;DHT22;64991;41.090;-8.118;2024-02-14T04:47:05;16.30;88.60
74368;DHT22;64991;41.090;-8.118;2024-02-14T04:52:11;16.30;88.40
74368;DHT22;64991;41.090;-8.118;2024-02-14T04:57:16;16.40;88.60
74368;DHT22;64991;41.090;-8.118;2024-02-14T05:02:20;16.30;88.70
74368;DHT22;64991;41.090;-8.118;2024-02-14T05:07:24;16.30;88.70
74368;DHT22;64991;41.090;-8.118;2024-02-14T05:12:29;16.30;88.40
74368;DHT22;64991;41.090;-8.118;2024-02-14T05:17:33;16.30;88.80
74368;DHT22;64991;41.090;-8.118;2024-02-14T05:22:38;16.30;88.60
74368;DHT22;64991;41.090;-8.118;2024-02-14T05:27:43;16.30;88.60
74368;DHT22;64991;41.090;-8.118;2024-02-14T05:32:48;16.30;88.40
74368;DHT22;64991;41.090;-8.118;2024-02-14T05:37:54;16.30;88.30
74368;DHT22;64991;41.090;-8.118;2024-02-14T05:43:00;16.30;88.60
74368;DHT22;64991;41.090;-8.118;2024-02-14T05:48:03;16.30;88.50
74368;DHT22;64991;41.090;-8.118;2024-02-14T05:53:07;16.30;88.60
74368;DHT22;64991;41.090;-8.118;2024-02-14T05:58:12;16.30;88.50
74368;DHT22;64991;41.090;-8.118;2024-02-14T06:03:17;16.30;88.60
74368;DHT22;64991;41.090;-8.118;2024-02-14T06:08:20;16.30;88.70
74368;DHT22;64991;41.090;-8.118;2024-02-14T06:13:26;16.30;88.60
74368;DHT22;64991;41.090;-8.118;2024-02-14T06:18:30;16.30;88.80
74368;DHT22;64991;41.090;-8.118;2024-02-14T06:23:34;16.30;88.70
74368;DHT22;64991;41.090;-8.118;2024-02-14T06:28:40;16.30;88.80
74368;DHT22;64991;41.090;-8.118;2024-02-14T06:33:44;16.30;88.90
74368;DHT22;64991;41.090;-8.118;2024-02-14T06:38:48;16.30;88.80
74368;DHT22;64991;41.090;-8.118;2024-02-14T06:43:54;16.30;89.30
74368;DHT22;64991;41.090;-8.118;2024-02-14T06:48:57;16.30;88.80
74368;DHT22;64991;41.090;-8.118;2024-02-14T06:54:02;16.30;88.80
74368;DHT22;64991;41.090;-8.118;2024-02-14T06:59:07;16.30;89.10
74368;DHT22;64991;41.090;-8.118;2024-02-14T07:04:10;16.30;88.90
74368;DHT22;64991;41.090;-8.118;2024-02-14T07:09:14;16.30;88.90
74368;DHT22;64991;41.090;-8.118;2024-02-14T07:14:19;16.40;88.90
74368;DHT22;64991;41.090;-8.118;2024-02-14T07:19:23;16.30;89.00
74368;DHT22;64991;41.090;-8.118;2024-02-14T07:24:27;16.30;89.10
74368;DHT22;64991;41.090;-8.118;2024-02-14T07:29:32;16.30;89.20
74368;DHT22;64991;41.090;-8.118;2024-02-14T07:34:37;16.30;89.10
74368;DHT22;64991;41.090;-8.118;2024-02-14T07:39:42;16.30;88.90
74368;DHT22;64991;41.090;-8.118;2024-02-14T07:44:47;16.30;89.00
74368;DHT22;64991;41.090;-8.118;2024-02-14T07:49:51;16.30;88.80
74368;DHT22;64991;41.090;-8.118;2024-02-14T07:54:55;16.30;89.00
74368;DHT22;64991;41.090;-8.118;2024-02-14T08:00:00;16.40;89.20
74368;DHT22;64991;41.090;-8.118;2024-02-14T08:05:04;16.40;89.20
74368;DHT22;64991;41.090;-8.118;2024-02-14T08:10:08;16.30;89.10
74368;DHT22;64991;41.090;-8.118;2024-02-14T08:15:13;16.40;89.30
74368;DHT22;64991;41.090;-8.118;2024-02-14T08:20:17;16.40;89.30
74368;DHT22;64991;41.090;-8.118;2024-02-14T08:25:21;16.40;89.30
74368;DHT22;64991;41.090;-8.118;2024-02-14T08:30:26;16.30;89.40
74368;DHT22;64991;41.090;-8.118;2024-02-14T08:35:30;16.20;89.10
74368;DHT22;64991;41.090;-8.118;2024-02-14T08:40:43;16.30;89.20
74368;DHT22;64991;41.090;-8.118;2024-02-14T08:45:50;16.40;89.20
74368;DHT22;64991;41.090;-8.118;2024-02-14T08:50:54;16.30;89.30
74368;DHT22;64991;41.090;-8.118;2024-02-14T08:55:57;16.40;89.30
74368;DHT22;64991;41.090;-8.118;2024-02-14T09:01:02;16.40;89.10
74368;DHT22;64991;41.090;-8.118;2024-02-14T09:06:16;16.30;89.30
74368;DHT22;64991;41.090;-8.118;2024-02-14T09:11:21;16.40;89.30
74368;DHT22;64991;41.090;-8.118;2024-02-14T09:16:26;16.40;89.00
74368;DHT22;64991;41.090;-8.118;2024-02-14T09:21:30;16.40;89.00
74368;DHT22;64991;41.090;-8.118;2024-02-14T09:26:36;16.30;89.00
74368;DHT22;64991;41.090;-8.118;2024-02-14T09:31:41;16.30;89.40
74368;DHT22;64991;41.090;-8.118;2024-02-14T09:36:49;16.40;89.30
74368;DHT22;64991;41.090;-8.118;2024-02-14T09:41:56;16.40;89.40
74368;DHT22;64991;41.090;-8.118;2024-02-14T09:47:05;16.40;89.40
74368;DHT22;64991;41.090;-8.118;2024-02-14T09:52:09;16.40;89.20
74368;DHT22;64991;41.090;-8.118;2024-02-14T09:57:14;16.40;89.40
74368;DHT22;64991;41.090;-8.118;2024-02-14T10:02:21;16.40;89.50
74368;DHT22;64991;41.090;-8.118;2024-02-14T10:07:24;16.30;89.70
74368;DHT22;64991;41.090;-8.118;2024-02-14T10:12:28;16.40;89.50
74368;DHT22;64991;41.090;-8.118;2024-02-14T10:17:34;16.40;89.50
74368;DHT22;64991;41.090;-8.118;2024-02-14T10:22:38;16.40;89.60
74368;DHT22;64991;41.090;-8.118;2024-02-14T10:27:42;16.40;89.70
74368;DHT22;64991;41.090;-8.118;2024-02-14T10:32:47;16.40;89.50
74368;DHT22;64991;41.090;-8.118;2024-02-14T10:37:51;16.40;89.90
74368;DHT22;64991;41.090;-8.118;2024-02-14T10:43:02;16.40;89.80
74368;DHT22;64991;41.090;-8.118;2024-02-14T10:48:08;16.40;89.70
74368;DHT22;64991;41.090;-8.118;2024-02-14T10:53:14;16.40;89.70
74368;DHT22;64991;41.090;-8.118;2024-02-14T10:58:18;16.50;89.40
74368;DHT22;64991;41.090;-8.118;2024-02-14T11:03:23;16.40;89.80
74368;DHT22;64991;41.090;-8.118;2024-02-14T11:08:28;16.40;90.00
74368;DHT22;64991;41.090;-8.118;2024-02-14T11:13:35;16.40;89.70
74368;DHT22;64991;41.090;-8.118;2024-02-14T11:18:40;16.40;89.90
74368;DHT22;64991;41.090;-8.118;2024-02-14T11:23:52;16.30;89.90
74368;DHT22;64991;41.090;-8.118;2024-02-14T11:28:59;16.40;89.90
74368;DHT22;64991;41.090;-8.118;2024-02-14T11:34:05;16.40;90.10
74368;DHT22;64991;41.090;-8.118;2024-02-14T11:39:10;16.40;90.10
74368;DHT22;64991;41.090;-8.118;2024-02-14T11:44:14;16.40;90.00
74368;DHT22;64991;41.090;-8.118;2024-02-14T11:49:19;16.40;90.10
74368;DHT22;64991;41.090;-8.118;2024-02-14T11:54:23;16.40;90.20
74368;DHT22;64991;41.090;-8.118;2024-02-14T11:59:27;16.40;90.00
74368;DHT22;64991;41.090;-8.118;2024-02-14T12:04:32;16.40;90.10
74368;DHT22;64991;41.090;-8.118;2024-02-14T12:09:36;16.50;89.90
74368;DHT22;64991;41.090;-8.118;2024-02-14T12:14:39;16.40;90.10
74368;DHT22;64991;41.090;-8.118;2024-02-14T12:19:44;16.50;89.90
74368;DHT22;64991;41.090;-8.118;2024-02-14T12:24:48;16.50;90.00
74368;DHT22;64991;41.090;-8.118;2024-02-14T12:29:54;16.50;89.80
74368;DHT22;64991;41.090;-8.118;2024-02-14T12:34:59;16.40;90.10
74368;DHT22;64991;41.090;-8.118;2024-02-14T12:40:04;16.40;90.20
74368;DHT22;64991;41.090;-8.118;2024-02-14T12:45:09;16.50;90.40
74368;DHT22;64991;41.090;-8.118;2024-02-14T12:50:17;16.50;90.20
74368;DHT22;64991;41.090;-8.118;2024-02-14T12:55:22;16.40;90.30
74368;DHT22;64991;41.090;-8.118;2024-02-14T13:00:27;16.50;90.30
74368;DHT22;64991;41.090;-8.118;2024-02-14T13:05:35;16.50;90.20
74368;DHT22;64991;41.090;-8.118;2024-02-14T13:10:38;16.50;89.90
74368;DHT22;64991;41.090;-8.118;2024-02-14T13:15:42;16.60;90.40
74368;DHT22;64991;41.090;-8.118;2024-02-14T13:20:48;16.50;90.20
74368;DHT22;64991;41.090;-8.118;2024-02-14T13:25:58;16.50;90.30
74368;DHT22;64991;41.090;-8.118;2024-02-14T13:31:05;16.50;90.20
74368;DHT22;64991;41.090;-8.118;2024-02-14T13:36:10;16.60;90.40
74368;DHT22;64991;41.090;-8.118;2024-02-14T13:41:17;16.60;90.20
74368;DHT22;64991;41.090;-8.118;2024-02-14T13:46:20;16.60;90.30
74368;DHT22;64991;41.090;-8.118;2024-02-14T13:51:25;16.60;90.20
74368;DHT22;64991;41.090;-8.118;2024-02-14T13:56:29;16.60;90.40
74368;DHT22;64991;41.090;-8.118;2024-02-14T14:01:33;16.60;90.30
74368;DHT22;64991;41.090;-8.118;2024-02-14T14:06:38;16.60;90.10
74368;DHT22;64991;41.090;-8.118;2024-02-14T14:11:42;16.60;90.40
74368;DHT22;64991;41.090;-8.118;2024-02-14T14:16:46;16.70;90.30
74368;DHT22;64991;41.090;-8.118;2024-02-14T14:21:51;16.70;90.20
74368;DHT22;64991;41.090;-8.118;2024-02-14T14:26:54;16.70;90.30
74368;DHT22;64991;41.090;-8.118;2024-02-14T14:31:58;16.70;90.20
74368;DHT22;64991;41.090;-8.118;2024-02-14T14:37:03;16.70;90.10
74368;DHT22;64991;41.090;-8.118;2024-02-14T14:42:08;16.60;90.30
74368;DHT22;64991;41.090;-8.118;2024-02-14T14:47:11;16.70;90.20
74368;DHT22;64991;41.090;-8.118;2024-02-14T14:52:16;16.70;90.30
74368;DHT22;64991;41.090;-8.118;2024-02-14T14:57:20;16.70;90.30
74368;DHT22;64991;41.090;-8.118;2024-02-14T15:02:26;16.60;90.30
74368;DHT22;64991;41.090;-8.118;2024-02-14T15:07:31;16.70;90.20
74368;DHT22;64991;41.090;-8.118;2024-02-14T15:12:34;16.60;90.40
74368;DHT22;64991;41.090;-8.118;2024-02-14T15:17:38;16.70;90.40
74368;DHT22;64991;41.090;-8.118;2024-02-14T15:22:44;16.60;90.30
74368;DHT22;64991;41.090;-8.118;2024-02-14T15:27:47;16.70;90.10
74368;DHT22;64991;41.090;-8.118;2024-02-14T15:32:56;16.80;90.40
74368;DHT22;64991;41.090;-8.118;2024-02-14T15:38:18;16.70;90.00
74368;DHT22;64991;41.090;-8.118;2024-02-14T15:43:22;16.70;90.30
74368;DHT22;64991;41.090;-8.118;2024-02-14T15:48:27;16.70;90.40
74368;DHT22;64991;41.090;-8.118;2024-02-14T15:53:33;16.70;90.50
74368;DHT22;64991;41.090;-8.118;2024-02-14T15:58:37;16.70;90.70
74368;DHT22;64991;41.090;-8.118;2024-02-14T16:03:41;16.70;90.60
74368;DHT22;64991;41.090;-8.118;2024-02-14T16:08:46;16.70;90.20
74368;DHT22;64991;41.090;-8.118;2024-02-14T16:13:50;16.80;90.30
74368;DHT22;64991;41.090;-8.118;2024-02-14T16:18:53;16.70;90.40
74368;DHT22;64991;41.090;-8.118;2024-02-14T16:24:01;16.70;90.50
74368;DHT22;64991;41.090;-8.118;2024-02-14T16:29:06;16.80;90.40
74368;DHT22;64991;41.090;-8.118;2024-02-14T16:34:10;16.70;90.60
74368;DHT22;64991;41.090;-8.118;2024-02-14T16:39:15;16.70;90.30
74368;DHT22;64991;41.090;-8.118;2024-02-14T16:44:39;16.70;90.50
74368;DHT22;64991;41.090;-8.118;2024-02-14T16:49:42;16.80;90.20
74368;DHT22;64991;41.090;-8.118;2024-02-14T16:54:48;16.70;90.70
74368;DHT22;64991;41.090;-8.118;2024-02-14T16:59:51;16.80;90.60
74368;DHT22;64991;41.090;-8.118;2024-02-14T17:04:55;16.80;90.40
74368;DHT22;64991;41.090;-8.118;2024-02-14T17:10:00;16.80;90.50
74368;DHT22;64991;41.090;-8.118;2024-02-14T17:15:04;16.80;90.20
74368;DHT22;64991;41.090;-8.118;2024-02-14T17:20:11;16.70;90.50
74368;DHT22;64991;41.090;-8.118;2024-02-14T17:25:17;16.80;90.20
74368;DHT22;64991;41.090;-8.118;2024-02-14T17:30:21;16.80;90.40
74368;DHT22;64991;41.090;-8.118;2024-02-14T17:35:25;16.80;90.40
74368;DHT22;64991;41.090;-8.118;2024-02-14T17:40:30;16.80;90.30
74368;DHT22;64991;41.090;-8.118;2024-02-14T17:45:34;16.80;90.50
74368;DHT22;64991;41.090;-8.118;2024-02-14T17:50:38;16.80;90.50
74368;DHT22;64991;41.090;-8.118;2024-02-14T17:55:44;16.80;90.40
74368;DHT22;64991;41.090;-8.118;2024-02-14T18:00:50;16.90;90.60
74368;DHT22;64991;41.090;-8.118;2024-02-14T18:05:54;16.80;90.40
74368;DHT22;64991;41.090;-8.118;2024-02-14T18:10:59;16.80;90.60
74368;DHT22;64991;41.090;-8.118;2024-02-14T18:16:04;16.80;90.30
74368;DHT22;64991;41.090;-8.118;2024-02-14T18:21:10;16.80;90.40
74368;DHT22;64991;41.090;-8.118;2024-02-14T18:26:16;16.80;90.20
74368;DHT22;64991;41.090;-8.118;2024-02-14T18:31:19;16.80;90.20
74368;DHT22;64991;41.090;-8.118;2024-02-14T18:36:23;16.80;90.30
74368;DHT22;64991;41.090;-8.118;2024-02-14T18:41:28;16.80;90.30
74368;DHT22;64991;41.090;-8.118;2024-02-14T18:46:32;16.80;90.00
74368;DHT22;64991;41.090;-8.118;2024-02-14T18:51:36;16.80;90.20
74368;DHT22;64991;41.090;-8.118;2024-02-14T18:56:43;16.80;90.20
74368;DHT22;64991;41.090;-8.118;2024-02-14T19:01:47;16.80;90.30
74368;DHT22;64991;41.090;-8.118;2024-02-14T19:06:50;16.80;90.20
74368;DHT22;64991;41.090;-8.118;2024-02-14T19:11:55;16.80;90.10
74368;DHT22;64991;41.090;-8.118;2024-02-14T19:16:59;16.80;90.10
74368;DHT22;64991;41.090;-8.118;2024-02-14T19:22:03;16.80;90.30
74368;DHT22;64991;41.090;-8.118;2024-02-14T19:27:09;16.80;90.30
74368;DHT22;64991;41.090;-8.118;2024-02-14T19:32:13;16.90;90.00
74368;DHT22;64991;41.090;-8.118;2024-02-14T19:37:17;16.80;90.00
74368;DHT22;64991;41.090;-8.118;2024-02-14T19:42:22;16.80;90.10
74368;DHT22;64991;41.090;-8.118;2024-02-14T19:47:26;16.80;90.00
74368;DHT22;64991;41.090;-8.118;2024-02-14T19:52:31;17.00;89.80
74368;DHT22;64991;41.090;-8.118;2024-02-14T19:57:37;16.80;89.80
74368;DHT22;64991;41.090;-8.118;2024-02-14T20:02:40;16.80;89.70
74368;DHT22;64991;41.090;-8.118;2024-02-14T20:07:44;16.80;90.00
74368;DHT22;64991;41.090;-8.118;2024-02-14T20:12:49;16.90;89.90
74368;DHT22;64991;41.090;-8.118;2024-02-14T20:17:53;16.90;89.70
74368;DHT22;64991;41.090;-8.118;2024-02-14T20:22:57;16.90;89.80
74368;DHT22;64991;41.090;-8.118;2024-02-14T20:28:02;16.80;89.70
74368;DHT22;64991;41.090;-8.118;2024-02-14T20:33:07;16.80;89.60
74368;DHT22;64991;41.090;-8.118;2024-02-14T20:38:11;16.80;89.60
74368;DHT22;64991;41.090;-8.118;2024-02-14T20:43:17;16.90;89.70
74368;DHT22;64991;41.090;-8.118;2024-02-14T20:48:20;16.80;89.60
74368;DHT22;64991;41.090;-8.118;2024-02-14T20:53:26;16.90;89.80
74368;DHT22;64991;41.090;-8.118;2024-02-14T20:58:31;16.90;89.90
74368;DHT22;64991;41.090;-8.118;2024-02-14T21:03:43;16.80;89.20
74368;DHT22;64991;41.090;-8.118;2024-02-14T21:08:46;16.90;89.60
74368;DHT22;64991;41.090;-8.118;2024-02-14T21:13:51;16.80;89.40
74368;DHT22;64991;41.090;-8.118;2024-02-14T21:18:55;16.90;89.60
74368;DHT22;64991;41.090;-8.118;2024-02-14T21:23:59;16.90;89.30
74368;DHT22;64991;41.090;-8.118;2024-02-14T21:29:04;16.90;89.60
74368;DHT22;64991;41.090;-8.118;2024-02-14T21:34:08;17.00;89.50
74368;DHT22;64991;41.090;-8.118;2024-02-14T21:39:12;16.90;89.30
74368;DHT22;64991;41.090;-8.118;2024-02-14T21:44:18;16.90;89.30
74368;DHT22;64991;41.090;-8.118;2024-02-14T21:49:22;17.00;89.20
74368;DHT22;64991;41.090;-8.118;2024-02-14T21:54:26;16.90;89.20
74368;DHT22;64991;41.090;-8.118;2024-02-14T21:59:31;16.90;89.50
74368;DHT22;64991;41.090;-8.118;2024-02-14T22:04:35;17.00;89.30
74368;DHT22;64991;41.090;-8.118;2024-02-14T22:09:39;17.00;89.30
74368;DHT22;64991;41.090;-8.118;2024-02-14T22:14:44;16.90;89.20
74368;DHT22;64991;41.090;-8.118;2024-02-14T22:19:49;16.90;89.30
74368;DHT22;64991;41.090;-8.118;2024-02-14T22:24:52;17.00;89.30
74368;DHT22;64991;41.090;-8.118;2024-02-14T22:29:57;17.00;89.00
74368;DHT22;64991;41.090;-8.118;2024-02-14T22:35:01;17.00;89.00
74368;DHT22;64991;41.090;-8.118;2024-02-14T22:40:06;16.90;89.10
74368;DHT22;64991;41.090;-8.118;2024-02-14T22:45:13;17.00;89.10
74368;DHT22;64991;41.090;-8.118;2024-02-14T22:50:17;17.00;89.00
74368;DHT22;64991;41.090;-8.118;2024-02-14T22:55:21;16.90;89.10
74368;DHT22;64991;41.090;-8.118;2024-02-14T23:00:26;17.00;88.90
74368;DHT22;64991;41.090;-8.118;2024-02-14T23:05:29;17.00;89.40
74368;DHT22;64991;41.090;-8.118;2024-02-14T23:10:33;17.00;89.20
74368;DHT22;64991;41.090;-8.118;2024-02-14T23:15:39;17.00;89.10
74368;DHT22;64991;41.090;-8.118;2024-02-14T23:20:44;17.00;89.10
74368;DHT22;64991;41.090;-8.118;2024-02-14T23:25:48;17.00;89.20
74368;DHT22;64991;41.090;-8.118;2024-02-14T23:30:53;17.00;89.20
74368;DHT22;64991;41.090;-8.118;2024-02-14T23:35:57;16.90;89.10
74368;DHT22;64991;41.090;-8.118;2024-02-14T23:41:01;17.00;88.80
74368;DHT22;64991;41.090;-8.118;2024-02-14T23:46:06;16.90;89.10
74368;DHT22;64991;41.090;-8.118;2024-02-14T23:51:10;17.00;89.00
74368;DHT22;64991;41.090;-8.118;2024-02-14T23:56:14;17.00;89.30
